createdAt,value
2023-04-02T00:02:21.757Z,100646.09
2023-04-02T00:05:16.767Z,100641.41
2023-04-02T00:07:49.088Z,100641.41
2023-04-02T00:10:33.731Z,100630.81
2023-04-02T00:13:17.811Z,100628.84
2023-04-02T00:15:49.293Z,100631.28
2023-04-02T00:18:23.181Z,100610.47
2023-04-02T00:21:19.740Z,100608.50
2023-04-02T00:23:47.087Z,100603.03
2023-04-02T00:26:43.405Z,100615.03
2023-04-02T00:29:15.062Z,100618.13
2023-04-02T00:31:44.566Z,100624.03
2023-04-02T00:34:38.262Z,100631.47
2023-04-02T00:37:06.080Z,100621.31
2023-04-02T00:39:42.347Z,100606.78
2023-04-02T00:42:12.777Z,100612.16
2023-04-02T00:44:45.601Z,100609.41
2023-04-02T00:47:47.867Z,100588.63
2023-04-02T00:50:15.717Z,100572.84
2023-04-02T00:52:48.431Z,100572.59
2023-04-02T00:55:21.637Z,100571.97
2023-04-02T00:57:49.991Z,100578.59
2023-04-02T01:00:29.435Z,100571.84
2023-04-02T01:03:18.317Z,100567.66
2023-04-02T01:05:50.412Z,100566.81
2023-04-02T01:08:23.731Z,100564.44
2023-04-02T01:10:53.715Z,100564.44
2023-04-02T01:13:26.107Z,100562.84
2023-04-02T01:16:20.919Z,100565.56
2023-04-02T01:19:02.065Z,100572.16
2023-04-02T01:21:53.958Z,100572.84
2023-04-02T01:24:22.214Z,100575.44
2023-04-02T01:26:59.959Z,100561.75
2023-04-02T01:29:42.464Z,100559.34
2023-04-02T01:32:13.120Z,100555.81
2023-04-02T01:34:44.866Z,100569.97
2023-04-02T01:37:14.910Z,100562.09
2023-04-02T01:39:44.991Z,100559.22
2023-04-02T01:42:14.838Z,100561.50
2023-04-02T01:44:48.570Z,100544.25
2023-04-02T01:47:18.921Z,100555.53
2023-04-02T01:49:46.720Z,100562.44
2023-04-02T01:52:25.997Z,100565.84
2023-04-02T01:54:53.805Z,100555.03
2023-04-02T01:57:21.494Z,100550.44
2023-04-02T01:59:48.954Z,100546.41
2023-04-02T02:02:16.548Z,100545.00
2023-04-02T02:04:44.612Z,100531.03
2023-04-02T02:07:20.923Z,100536.38
2023-04-02T02:09:53.342Z,100540.13
2023-04-02T02:12:21.566Z,100530.94
2023-04-02T02:14:50.400Z,100527.88
2023-04-02T02:17:24.313Z,100535.47
2023-04-02T02:19:57.130Z,100540.00
2023-04-02T02:22:39.060Z,100544.34
2023-04-02T02:25:13.842Z,100531.03
2023-04-02T02:28:04.033Z,100534.44
2023-04-02T02:31:28.133Z,100527.34
2023-04-02T02:34:04.396Z,100529.72
2023-04-02T02:36:40.254Z,100533.78
2023-04-02T02:39:13.423Z,100529.16
2023-04-02T02:41:49.790Z,100526.16
2023-04-02T02:44:23.147Z,100519.25
2023-04-02T02:46:54.834Z,100533.09
2023-04-02T02:49:28.976Z,100534.09
2023-04-02T02:52:13.636Z,100522.34
2023-04-02T02:54:55.090Z,100527.00
2023-04-02T02:57:33.911Z,100534.91
2023-04-02T03:00:05.693Z,100526.53
2023-04-02T03:02:36.867Z,100516.56
2023-04-02T03:05:07.675Z,100522.69
2023-04-02T03:07:37.430Z,100519.00
2023-04-02T03:10:41.393Z,100527.06
2023-04-02T03:13:27.179Z,100525.47
2023-04-02T03:16:09.457Z,100518.56
2023-04-02T03:18:51.149Z,100510.94
2023-04-02T03:21:25.251Z,100521.09
2023-04-02T03:24:01.317Z,100515.47
2023-04-02T03:26:38.396Z,100514.19
2023-04-02T03:29:19.837Z,100507.78
2023-04-02T03:32:06.222Z,100525.63
2023-04-02T03:34:46.979Z,100525.47
2023-04-02T03:37:33.239Z,100523.38
2023-04-02T03:40:15.455Z,100529.19
2023-04-02T03:43:00.479Z,100531.91
2023-04-02T03:45:32.536Z,100531.56
2023-04-02T03:48:16.252Z,100527.56
2023-04-02T03:50:46.907Z,100534.97
2023-04-02T03:53:14.168Z,100539.97
2023-04-02T03:55:43.122Z,100540.13
2023-04-02T03:58:29.153Z,100541.91
2023-04-02T04:01:12.565Z,100540.63
2023-04-02T04:03:45.272Z,100530.50
2023-04-02T04:06:23.528Z,100535.50
2023-04-02T04:09:01.200Z,100542.56
2023-04-02T04:11:34.996Z,100533.06
2023-04-02T04:14:16.447Z,100532.44
2023-04-02T04:16:54.234Z,100526.81
2023-04-02T04:19:39.408Z,100521.69
2023-04-02T04:22:15.124Z,100522.47
2023-04-02T04:24:46.030Z,100517.66
2023-04-02T04:27:33.871Z,100510.44
2023-04-02T04:30:36.829Z,100519.44
2023-04-02T04:33:16.915Z,100512.69
2023-04-02T04:35:52.464Z,100513.50
2023-04-02T04:38:28.251Z,100514.16
2023-04-02T04:41:02.392Z,100513.66
2023-04-02T04:43:32.120Z,100517.53
2023-04-02T04:46:08.523Z,100508.69
2023-04-02T04:48:38.176Z,100505.63
2023-04-02T04:51:37.534Z,100518.84
2023-04-02T04:54:05.542Z,100512.06
2023-04-02T04:56:35.147Z,100509.66
2023-04-02T04:59:27.315Z,100514.00
2023-04-02T05:02:24.788Z,100505.47
2023-04-02T05:04:53.966Z,100494.44
2023-04-02T05:07:29.937Z,100505.47
2023-04-02T05:10:20.334Z,100497.06
2023-04-02T05:13:07.950Z,100489.84
2023-04-02T05:16:01.452Z,100491.00
2023-04-02T05:18:36.769Z,100484.00
2023-04-02T05:21:07.122Z,100493.19
2023-04-02T05:23:58.115Z,100486.97
2023-04-02T05:26:32.634Z,100490.09
2023-04-02T05:29:36.372Z,100480.84
2023-04-02T05:32:14.068Z,100487.53
2023-04-02T05:34:47.317Z,100484.03
2023-04-02T05:37:19.832Z,100489.19
2023-04-02T05:39:52.940Z,100478.59
2023-04-02T05:42:31.935Z,100475.72
2023-04-02T05:45:09.001Z,100479.25
2023-04-02T05:47:41.269Z,100477.69
2023-04-02T05:50:40.481Z,100482.81
2023-04-02T05:53:23.022Z,100490.25
2023-04-02T05:56:00.051Z,100479.06
2023-04-02T05:58:44.040Z,100480.31
2023-04-02T06:01:49.784Z,100477.53
2023-04-02T06:04:32.838Z,100484.06
2023-04-02T06:07:19.720Z,100479.88
2023-04-02T06:09:58.620Z,100481.34
2023-04-02T06:12:32.288Z,100476.09
2023-04-02T06:15:01.132Z,100485.00
2023-04-02T06:17:43.510Z,100477.41
2023-04-02T06:20:16.820Z,100480.78
2023-04-02T06:22:51.563Z,100472.22
2023-04-02T06:25:28.270Z,100464.66
2023-04-02T06:28:00.080Z,100467.00
2023-04-02T06:30:39.653Z,100466.72
2023-04-02T06:33:08.210Z,100467.59
2023-04-02T06:35:39.991Z,100457.31
2023-04-02T06:38:19.744Z,100464.47
2023-04-02T06:40:53.262Z,100468.44
2023-04-02T06:43:51.247Z,100470.75
2023-04-02T06:46:41.278Z,100466.41
2023-04-02T06:49:51.704Z,100463.59
2023-04-02T06:52:28.972Z,100469.72
2023-04-02T06:54:57.724Z,100471.56
2023-04-02T06:57:25.281Z,100471.56
2023-04-02T06:59:54.075Z,100472.38
2023-04-02T07:02:26.936Z,100468.84
2023-04-02T07:05:05.016Z,100471.63
2023-04-02T07:07:34.428Z,100465.66
2023-04-02T07:10:04.567Z,100471.22
2023-04-02T07:12:31.788Z,100460.84
2023-04-02T07:14:58.968Z,100466.41
2023-04-02T07:17:27.077Z,100463.75
2023-04-02T07:19:54.317Z,100460.81
2023-04-02T07:22:23.836Z,100461.25
2023-04-02T07:24:55.376Z,100463.13
2023-04-02T07:27:22.707Z,100459.69
2023-04-02T07:29:49.830Z,100464.84
2023-04-02T07:32:17.451Z,100458.91
2023-04-02T07:34:44.531Z,100454.84
2023-04-02T07:37:14.657Z,100453.75
2023-04-02T07:39:41.992Z,100457.34
2023-04-02T07:42:09.058Z,100459.31
2023-04-02T07:44:36.344Z,100464.81
2023-04-02T07:47:04.215Z,100460.44
2023-04-02T07:49:31.333Z,100462.81
2023-04-02T07:51:58.466Z,100460.97
2023-04-02T07:54:27.406Z,100458.09
2023-04-02T07:56:54.562Z,100456.59
2023-04-02T07:59:21.768Z,100460.66
2023-04-02T08:01:49.023Z,100462.69
2023-04-02T08:04:21.564Z,100459.97
2023-04-02T08:06:49.857Z,100460.38
2023-04-02T08:09:17.782Z,100464.28
2023-04-02T08:11:46.702Z,100463.03
2023-04-02T08:14:14.321Z,100461.00
2023-04-02T08:16:47.730Z,100463.38
2023-04-02T08:19:15.835Z,100460.53
2023-04-02T08:21:43.401Z,100465.25
2023-04-02T08:24:10.483Z,100473.91
2023-04-02T08:26:37.808Z,100458.75
2023-04-02T08:29:05.130Z,100461.81
2023-04-02T08:31:32.468Z,100459.75
2023-04-02T08:33:59.724Z,100457.56
2023-04-02T08:36:33.615Z,100458.28
2023-04-02T08:39:01.382Z,100460.47
2023-04-02T08:41:31.202Z,100457.13
2023-04-02T08:44:19.606Z,100458.44
2023-04-02T08:46:52.370Z,100459.53
2023-04-02T08:49:43.142Z,100452.59
2023-04-02T08:52:23.326Z,100460.44
2023-04-02T08:54:51.066Z,100456.63
2023-04-02T08:57:37.973Z,100461.34
2023-04-02T09:00:13.538Z,100465.63
2023-04-02T09:02:47.075Z,100459.38
2023-04-02T09:05:21.110Z,100465.63
2023-04-02T09:07:50.946Z,100467.22
2023-04-02T09:10:19.333Z,100471.56
2023-04-02T09:12:53.541Z,100466.22
2023-04-02T09:15:29.801Z,100466.75
2023-04-02T09:18:04.496Z,100466.94
2023-04-02T09:20:31.687Z,100473.16
2023-04-02T09:22:59.559Z,100458.66
2023-04-02T09:25:32.519Z,100451.19
2023-04-02T09:28:05.333Z,100450.72
2023-04-02T09:30:32.574Z,100457.56
2023-04-02T09:33:07.811Z,100452.16
2023-04-02T09:35:38.065Z,100438.16
2023-04-02T09:38:08.085Z,100433.72
2023-04-02T09:40:59.979Z,100439.19
2023-04-02T09:43:30.440Z,100439.53
2023-04-02T09:46:18.509Z,100435.34
2023-04-02T09:49:03.814Z,100431.47
2023-04-02T09:51:36.724Z,100431.66
2023-04-02T09:54:04.053Z,100437.16
2023-04-02T09:56:33.408Z,100423.75
2023-04-02T09:59:12.646Z,100426.19
2023-04-02T10:01:41.222Z,100425.91
2023-04-02T10:04:44.653Z,100428.28
2023-04-02T10:07:30.809Z,100425.09
2023-04-02T10:10:04.175Z,100415.63
2023-04-02T10:12:37.472Z,100408.81
2023-04-02T10:15:06.431Z,100407.59
2023-04-02T10:17:38.368Z,100406.16
2023-04-02T10:20:22.761Z,100404.84
2023-04-02T10:22:50.431Z,100403.13
2023-04-02T10:25:21.948Z,100397.03
2023-04-02T10:28:43.143Z,100391.53
2023-04-02T10:31:25.575Z,100398.03
2023-04-02T10:34:02.876Z,100394.78
2023-04-02T10:36:39.026Z,100402.53
2023-04-02T10:39:37.704Z,100412.53
2023-04-02T10:42:26.205Z,100411.25
2023-04-02T10:45:05.144Z,100411.34
2023-04-02T10:47:32.427Z,100414.84
2023-04-02T10:50:14.416Z,100416.13
2023-04-02T10:52:57.699Z,100411.56
2023-04-02T10:55:26.761Z,100410.56
2023-04-02T10:57:56.917Z,100402.56
2023-04-02T11:00:37.318Z,100412.50
2023-04-02T11:03:13.441Z,100399.13
2023-04-02T11:05:44.422Z,100399.66
2023-04-02T11:08:23.491Z,100400.75
2023-04-02T11:11:10.042Z,100394.00
2023-04-02T11:13:53.666Z,100386.59
2023-04-02T11:16:21.561Z,100383.38
2023-04-02T11:19:16.234Z,100385.84
2023-04-02T11:21:59.720Z,100372.34
2023-04-02T11:24:31.788Z,100384.75
2023-04-02T11:27:36.326Z,100383.31
2023-04-02T11:30:11.810Z,100377.06
2023-04-02T11:32:43.078Z,100370.34
2023-04-02T11:35:38.322Z,100365.72
2023-04-02T11:38:12.527Z,100368.19
2023-04-02T11:40:52.319Z,100368.47
2023-04-02T11:43:36.996Z,100360.41
2023-04-02T11:46:19.202Z,100347.00
2023-04-02T11:48:46.908Z,100337.44
2023-04-02T11:51:23.074Z,100340.56
2023-04-02T11:53:54.010Z,100334.19
2023-04-02T11:56:39.460Z,100326.00
2023-04-02T11:59:26.646Z,100320.19
2023-04-02T12:02:04.816Z,100318.75
2023-04-02T12:04:40.004Z,100320.63
2023-04-02T12:07:52.449Z,100320.88
2023-04-02T12:10:22.848Z,100315.53
2023-04-02T12:12:51.167Z,100310.13
2023-04-02T12:15:57.883Z,100298.78
2023-04-02T12:18:25.653Z,100286.56
2023-04-02T12:20:56.134Z,100290.38
2023-04-02T12:23:29.891Z,100293.88
2023-04-02T12:26:02.195Z,100292.59
2023-04-02T12:28:31.487Z,100295.44
2023-04-02T12:31:15.107Z,100306.31
2023-04-02T12:33:43.350Z,100303.81
2023-04-02T12:36:16.207Z,100298.03
2023-04-02T12:39:16.974Z,100281.53
2023-04-02T12:41:44.272Z,100285.63
2023-04-02T12:44:17.416Z,100289.97
2023-04-02T12:46:48.500Z,100287.16
2023-04-02T12:49:41.684Z,100287.69
2023-04-02T12:52:14.921Z,100293.94
2023-04-02T12:54:47.000Z,100298.13
2023-04-02T12:57:30.347Z,100297.34
2023-04-02T12:59:58.477Z,100287.81
2023-04-02T13:02:31.944Z,100284.53
2023-04-02T13:05:01.691Z,100287.00
2023-04-02T13:07:33.685Z,100285.00
2023-04-02T13:10:03.077Z,100280.06
2023-04-02T13:12:37.506Z,100274.06
2023-04-02T13:15:17.075Z,100275.72
2023-04-02T13:17:48.271Z,100263.19
2023-04-02T13:20:38.912Z,100264.84
2023-04-02T13:23:30.961Z,100254.06
2023-04-02T13:26:01.388Z,100247.47
2023-04-02T13:28:29.640Z,100242.97
2023-04-02T13:30:57.100Z,100239.91
2023-04-02T13:33:24.228Z,100232.16
2023-04-02T13:35:51.621Z,100229.72
2023-04-02T13:38:18.802Z,100220.16
2023-04-02T13:40:46.606Z,100216.63
2023-04-02T13:43:19.753Z,100204.63
2023-04-02T13:45:51.886Z,100209.69
2023-04-02T13:48:19.431Z,100200.41
2023-04-02T13:50:46.876Z,100195.84
2023-04-02T13:53:22.446Z,100194.09
2023-04-02T13:55:49.792Z,100183.44
2023-04-02T13:58:17.009Z,100179.19
2023-04-02T14:00:44.358Z,100166.97
2023-04-02T14:03:22.548Z,100162.50
2023-04-02T14:06:10.771Z,100146.19
2023-04-02T14:08:51.132Z,100128.59
2023-04-02T14:11:27.396Z,100132.56
2023-04-02T14:14:23.927Z,100141.25
2023-04-02T14:17:11.583Z,100140.94
2023-04-02T14:19:59.883Z,100138.69
2023-04-02T14:22:48.055Z,100138.63
2023-04-02T14:25:36.983Z,100142.78
2023-04-02T14:28:23.926Z,100134.69
2023-04-02T14:31:05.770Z,100146.69
2023-04-02T14:34:16.420Z,100138.56
2023-04-02T14:36:56.671Z,100139.50
2023-04-02T14:39:38.754Z,100137.22
2023-04-02T14:42:44.372Z,100142.16
2023-04-02T14:45:23.456Z,100144.66
2023-04-02T14:47:57.824Z,100149.97
2023-04-02T14:50:33.275Z,100149.91
2023-04-02T14:53:13.375Z,100154.94
2023-04-02T14:55:44.135Z,100155.75
2023-04-02T14:58:31.864Z,100144.59
2023-04-02T15:01:03.351Z,100138.22
2023-04-02T15:03:43.209Z,100133.50
2023-04-02T15:06:21.484Z,100126.75
2023-04-02T15:09:09.265Z,100116.19
2023-04-02T15:11:41.902Z,100120.00
2023-04-02T15:14:20.802Z,100135.00
2023-04-02T15:16:48.185Z,100139.19
2023-04-02T15:19:18.069Z,100140.56
2023-04-02T15:21:57.706Z,100144.41
2023-04-02T15:24:51.263Z,100136.31
2023-04-02T15:27:34.555Z,100132.47
2023-04-02T15:30:13.101Z,100124.44
2023-04-02T15:32:41.969Z,100122.38
2023-04-02T15:35:22.577Z,100122.84
2023-04-02T15:37:53.251Z,100121.19
2023-04-02T15:40:24.386Z,100120.41
2023-04-02T15:43:20.223Z,100115.25
2023-04-02T15:46:08.311Z,100119.72
2023-04-02T15:48:53.743Z,100112.19
2023-04-02T15:51:33.870Z,100120.03
2023-04-02T15:54:11.875Z,100119.16
2023-04-02T15:57:01.573Z,100113.59
2023-04-02T16:00:22.757Z,100114.91
2023-04-02T16:03:11.817Z,100112.34
2023-04-02T16:05:50.274Z,100108.81
2023-04-02T16:08:33.458Z,100111.22
2023-04-02T16:11:00.831Z,100096.78
2023-04-02T16:13:35.325Z,100098.19
2023-04-02T16:16:07.340Z,100094.47
2023-04-02T16:18:49.538Z,100098.47
2023-04-02T16:21:22.356Z,100099.94
2023-04-02T16:23:50.561Z,100095.50
2023-04-02T16:26:27.382Z,100089.91
2023-04-02T16:29:16.785Z,100087.34
2023-04-02T16:32:11.557Z,100082.09
2023-04-02T16:35:23.976Z,100078.88
2023-04-02T16:37:58.550Z,100079.06
2023-04-02T16:41:07.020Z,100068.44
2023-04-02T16:43:42.407Z,100066.38
2023-04-02T16:46:38.836Z,100066.75
2023-04-02T16:49:38.559Z,100064.25
2023-04-02T16:52:25.817Z,100060.97
2023-04-02T16:55:09.557Z,100060.78
2023-04-02T16:57:50.685Z,100073.78
2023-04-02T17:00:32.529Z,100068.28
2023-04-02T17:03:19.234Z,100065.47
2023-04-02T17:06:01.985Z,100079.63
2023-04-02T17:08:57.111Z,100070.84
2023-04-02T17:11:30.506Z,100066.06
2023-04-02T17:14:06.416Z,100080.91
2023-04-02T17:16:43.905Z,100083.31
2023-04-02T17:19:14.881Z,100095.00
2023-04-02T17:21:45.607Z,100087.56
2023-04-02T17:24:21.906Z,100088.69
2023-04-02T17:26:54.085Z,100090.19
2023-04-02T17:29:35.412Z,100089.38
2023-04-02T17:32:06.603Z,100094.84
2023-04-02T17:34:33.774Z,100096.47
2023-04-02T17:37:07.122Z,100095.69
2023-04-02T17:39:41.976Z,100089.28
2023-04-02T17:42:36.242Z,100092.38
2023-04-02T17:45:19.558Z,100086.09
2023-04-02T17:47:59.221Z,100101.66
2023-04-02T17:50:37.766Z,100099.91
2023-04-02T17:53:21.925Z,100097.41
2023-04-02T17:56:22.083Z,100094.47
2023-04-02T17:58:55.208Z,100102.06
2023-04-02T18:01:22.381Z,100111.50
2023-04-02T18:04:03.288Z,100122.56
2023-04-02T18:06:42.065Z,100123.59
2023-04-02T18:09:22.392Z,100129.31
2023-04-02T18:12:01.594Z,100132.22
2023-04-02T18:15:02.195Z,100135.94
2023-04-02T18:17:51.273Z,100144.94
2023-04-02T18:20:34.897Z,100148.88
2023-04-02T18:23:09.582Z,100146.69
2023-04-02T18:25:42.951Z,100154.41
2023-04-02T18:28:45.149Z,100152.69
2023-04-02T18:31:19.691Z,100161.56
2023-04-02T18:34:30.650Z,100164.00
2023-04-02T18:37:15.966Z,100166.47
2023-04-02T18:40:22.285Z,100169.97
2023-04-02T18:42:51.207Z,100176.13
2023-04-02T18:45:35.065Z,100193.34
2023-04-02T18:48:35.261Z,100197.53
2023-04-02T18:51:06.921Z,100214.53
2023-04-02T18:53:37.311Z,100214.97
2023-04-02T18:56:11.983Z,100222.56
2023-04-02T18:58:53.086Z,100213.16
2023-04-02T19:01:28.642Z,100212.53
2023-04-02T19:04:04.921Z,100207.72
2023-04-02T19:06:47.436Z,100198.56
2023-04-02T19:09:25.516Z,100194.72
2023-04-02T19:11:54.031Z,100187.81
2023-04-02T19:14:24.128Z,100196.81
2023-04-02T19:17:17.789Z,100200.31
2023-04-02T19:19:45.943Z,100199.69
2023-04-02T19:22:24.043Z,100208.66
2023-04-02T19:25:02.029Z,100201.75
2023-04-02T19:28:12.199Z,100205.13
2023-04-02T19:30:57.581Z,100205.59
2023-04-02T19:33:42.804Z,100204.16
2023-04-02T19:36:16.620Z,100200.66
2023-04-02T19:39:17.889Z,100196.81
2023-04-02T19:42:22.544Z,100190.41
2023-04-02T19:44:52.926Z,100189.75
2023-04-02T19:47:21.216Z,100190.22
2023-04-02T19:49:49.001Z,100192.31
2023-04-02T19:52:16.852Z,100194.72
2023-04-02T19:54:44.859Z,100195.69
2023-04-02T19:57:17.208Z,100188.66
2023-04-02T19:59:45.875Z,100195.19
2023-04-02T20:02:13.836Z,100188.63
2023-04-02T20:04:43.157Z,100191.84
2023-04-02T20:07:11.018Z,100187.50
2023-04-02T20:09:38.736Z,100193.13
2023-04-02T20:12:07.371Z,100185.56
2023-04-02T20:14:35.394Z,100181.56
2023-04-02T20:17:03.162Z,100179.63
2023-04-02T20:19:30.822Z,100174.50
2023-04-02T20:21:58.396Z,100173.25
2023-04-02T20:24:26.207Z,100174.84
2023-04-02T20:26:53.511Z,100163.78
2023-04-02T20:29:22.566Z,100161.69
2023-04-02T20:31:50.032Z,100151.44
2023-04-02T20:34:18.066Z,100148.88
2023-04-02T20:36:46.254Z,100149.19
2023-04-02T20:39:19.557Z,100135.28
2023-04-02T20:41:47.738Z,100139.25
2023-04-02T20:44:14.954Z,100133.19
2023-04-02T20:46:42.606Z,100123.09
2023-04-02T20:49:09.713Z,100113.13
2023-04-02T20:51:36.860Z,100108.81
2023-04-02T20:54:04.406Z,100106.25
2023-04-02T20:56:31.860Z,100102.72
2023-04-02T20:58:59.039Z,100091.78
2023-04-02T21:01:30.303Z,100085.56
2023-04-02T21:04:02.799Z,100087.94
2023-04-02T21:06:32.884Z,100084.59
2023-04-02T21:09:02.122Z,100074.50
2023-04-02T21:11:29.426Z,100067.47
2023-04-02T21:13:56.846Z,100071.47
2023-04-02T21:16:29.821Z,100066.50
2023-04-02T21:19:00.905Z,100061.84
2023-04-02T21:21:28.834Z,100064.13
2023-04-02T21:23:59.597Z,100057.41
2023-04-02T21:26:28.409Z,100049.25
2023-04-02T21:28:56.082Z,100051.66
2023-04-02T21:31:25.859Z,100048.91
2023-04-02T21:33:55.844Z,100043.97
2023-04-02T21:36:26.081Z,100038.50
2023-04-02T21:39:01.917Z,100040.44
2023-04-02T21:41:32.530Z,100040.25
2023-04-02T21:44:03.252Z,100031.91
2023-04-02T21:46:33.596Z,100032.53
2023-04-02T21:49:01.142Z,100022.94
2023-04-02T21:51:31.005Z,100032.91
2023-04-02T21:53:59.262Z,100025.53
2023-04-02T21:56:31.809Z,100021.69
2023-04-02T21:59:01.960Z,100016.56
2023-04-02T22:01:34.686Z,100013.66
2023-04-02T22:04:04.530Z,100012.53
2023-04-02T22:06:33.377Z,100000.84
2023-04-02T22:09:05.050Z,100002.78
2023-04-02T22:11:35.806Z,99993.66
2023-04-02T22:14:03.746Z,99991.41
2023-04-02T22:16:32.755Z,99984.03
2023-04-02T22:19:02.149Z,99975.72
2023-04-02T22:21:30.681Z,99987.72
2023-04-02T22:24:01.816Z,99979.88
2023-04-02T22:26:31.805Z,99975.09
2023-04-02T22:28:59.636Z,99966.25
2023-04-02T22:31:29.832Z,99957.59
2023-04-02T22:33:58.158Z,99963.84
2023-04-02T22:36:26.832Z,99948.63
2023-04-02T22:38:54.398Z,99956.31
2023-04-02T22:41:26.489Z,99965.94
2023-04-02T22:43:55.355Z,99956.78
2023-04-02T22:46:23.566Z,99958.06
2023-04-02T22:48:51.034Z,99948.00
2023-04-02T22:51:20.808Z,99947.88
2023-04-02T22:53:49.082Z,99945.28
2023-04-02T22:56:21.730Z,99936.31
2023-04-02T22:58:49.300Z,99936.94
2023-04-02T23:01:23.786Z,99928.63
2023-04-02T23:03:53.344Z,99923.47
2023-04-02T23:06:20.967Z,99918.81
2023-04-02T23:08:48.164Z,99919.09
2023-04-02T23:11:23.575Z,99910.63
2023-04-02T23:13:52.967Z,99903.88
2023-04-02T23:16:22.999Z,99891.84
2023-04-02T23:18:51.393Z,99884.81
2023-04-02T23:21:20.115Z,99879.81
2023-04-02T23:23:48.520Z,99879.81
2023-04-02T23:26:19.962Z,99882.72
2023-04-02T23:28:47.128Z,99884.31
2023-04-02T23:31:20.189Z,99882.38
2023-04-02T23:33:47.983Z,99879.81
2023-04-02T23:36:21.672Z,99878.50
2023-04-02T23:38:48.928Z,99862.81
2023-04-02T23:41:17.274Z,99873.84
2023-04-02T23:43:44.623Z,99868.25
2023-04-02T23:46:11.978Z,99866.03
2023-04-02T23:48:39.245Z,99854.31
2023-04-02T23:51:07.186Z,99853.66
2023-04-02T23:53:34.988Z,99854.13
2023-04-02T23:56:02.220Z,99841.13
2023-04-02T23:58:29.700Z,99826.06
